createdAt,value
2022-08-27T05:21:18.820Z,21.41
2022-08-27T05:26:15.518Z,21.39
2022-08-27T12:22:59.124Z,22.95
2022-08-27T12:28:13.249Z,23.06
2022-08-27T13:31:20.603Z,23.38
2022-08-27T13:36:51.265Z,23.44
2022-08-27T14:53:59.496Z,24.04
2022-08-27T15:44:55.135Z,24.21
2022-08-27T15:51:08.831Z,24.16
2022-08-27T16:14:06.382Z,24.09
2022-08-27T16:19:16.656Z,24.02
2022-08-27T20:56:51.657Z,20.04
2022-08-27T21:01:49.752Z,19.98
2022-08-27T21:06:46.417Z,19.93
2022-08-27T21:11:45.497Z,19.87
2022-08-27T21:16:45.342Z,19.82
2022-08-27T21:21:42.259Z,19.78
2022-08-27T21:26:39.169Z,19.74
2022-08-27T21:31:38.494Z,19.70
2022-08-27T21:36:35.400Z,19.65
2022-08-27T21:41:36.807Z,19.60
2022-08-27T21:46:34.280Z,19.54
2022-08-27T21:51:32.027Z,19.50
2022-08-27T21:56:31.563Z,19.46
2022-08-27T22:01:28.583Z,19.38
2022-08-27T22:06:25.324Z,19.34
2022-08-27T22:11:24.289Z,19.30
2022-08-27T22:16:30.772Z,19.26
2022-08-27T22:21:27.422Z,19.22
2022-08-27T22:26:26.234Z,19.16
2022-08-27T22:31:25.929Z,19.13
2022-08-27T22:36:25.624Z,19.08
2022-08-27T22:41:22.364Z,19.05
2022-08-27T22:46:21.243Z,19.00
2022-08-27T22:51:18.542Z,18.96
2022-08-27T22:56:18.288Z,18.91
2022-08-27T23:01:21.277Z,18.84
2022-08-27T23:06:17.878Z,18.80
2022-08-27T23:11:15.734Z,18.76
2022-08-27T23:16:14.179Z,18.73
2022-08-27T23:21:11.437Z,18.69
2022-08-27T23:26:26.569Z,18.65
2022-08-27T23:31:25.437Z,18.60
2022-08-27T23:36:22.071Z,18.54
2022-08-27T23:41:18.948Z,18.49
2022-08-27T23:46:15.311Z,18.47
2022-08-27T23:51:11.745Z,18.44
2022-08-27T23:56:08.067Z,18.39
